sensor_id;sensor_type;location;lat;lon;timestamp;temperature;humidity
20481;DHT22;10399;50.754;3.366;2023-05-14T00:00:28;14.90;99.90
20481;DHT22;10399;50.754;3.366;2023-05-14T00:02:55;14.90;99.90
20481;DHT22;10399;50.754;3.366;2023-05-14T00:05:23;14.80;99.90
20481;DHT22;10399;50.754;3.366;2023-05-14T00:07:49;14.60;99.90
20481;DHT22;10399;50.754;3.366;2023-05-14T00:10:16;14.50;99.90
20481;DHT22;10399;50.754;3.366;2023-05-14T00:12:46;14.60;99.90
20481;DHT22;10399;50.754;3.366;2023-05-14T00:15:13;14.60;99.90
20481;DHT22;10399;50.754;3.366;2023-05-14T00:17:41;14.80;99.90
20481;DHT22;10399;50.754;3.366;2023-05-14T00:20:08;14.70;99.90
20481;DHT22;10399;50.754;3.366;2023-05-14T00:22:38;14.80;99.90
20481;DHT22;10399;50.754;3.366;2023-05-14T00:25:06;14.70;99.90
20481;DHT22;10399;50.754;3.366;2023-05-14T00:27:34;14.70;99.90
20481;DHT22;10399;50.754;3.366;2023-05-14T00:30:04;14.70;99.90
20481;DHT22;10399;50.754;3.366;2023-05-14T00:32:32;14.80;99.90
20481;DHT22;10399;50.754;3.366;2023-05-14T00:34:59;14.80;99.90
20481;DHT22;10399;50.754;3.366;2023-05-14T00:37:28;14.80;99.90
20481;DHT22;10399;50.754;3.366;2023-05-14T00:39:55;14.80;99.90
20481;DHT22;10399;50.754;3.366;2023-05-14T00:42:22;14.90;99.90
20481;DHT22;10399;50.754;3.366;2023-05-14T00:44:49;14.90;99.90
20481;DHT22;10399;50.754;3.366;2023-05-14T00:47:16;14.70;99.90
20481;DHT22;10399;50.754;3.366;2023-05-14T00:49:43;14.60;99.90
20481;DHT22;10399;50.754;3.366;2023-05-14T00:52:12;14.60;99.90
20481;DHT22;10399;50.754;3.366;2023-05-14T00:54:41;14.80;99.90
20481;DHT22;10399;50.754;3.366;2023-05-14T00:57:08;14.60;99.90
20481;DHT22;10399;50.754;3.366;2023-05-14T00:59:35;14.70;99.90
20481;DHT22;10399;50.754;3.366;2023-05-14T01:02:02;14.70;99.90
20481;DHT22;10399;50.754;3.366;2023-05-14T01:04:31;14.70;99.90
20481;DHT22;10399;50.754;3.366;2023-05-14T01:07:17;14.80;99.90
20481;DHT22;10399;50.754;3.366;2023-05-14T01:10:00;14.60;99.90
20481;DHT22;10399;50.754;3.366;2023-05-14T01:12:53;14.60;99.90
20481;DHT22;10399;50.754;3.366;2023-05-14T01:15:30;14.80;99.90
20481;DHT22;10399;50.754;3.366;2023-05-14T01:18:02;14.70;99.90
20481;DHT22;10399;50.754;3.366;2023-05-14T01:20:30;14.70;99.90
20481;DHT22;10399;50.754;3.366;2023-05-14T01:22:57;14.70;99.90
20481;DHT22;10399;50.754;3.366;2023-05-14T01:25:25;14.90;99.90
20481;DHT22;10399;50.754;3.366;2023-05-14T01:32:55;14.90;99.90
20481;DHT22;10399;50.754;3.366;2023-05-14T01:35:27;14.90;99.90
20481;DHT22;10399;50.754;3.366;2023-05-14T01:37:57;14.80;99.90
20481;DHT22;10399;50.754;3.366;2023-05-14T01:40:26;14.70;99.90
20481;DHT22;10399;50.754;3.366;2023-05-14T01:42:54;14.80;99.90
20481;DHT22;10399;50.754;3.366;2023-05-14T01:45:22;14.80;99.90
20481;DHT22;10399;50.754;3.366;2023-05-14T01:47:50;14.80;99.90
20481;DHT22;10399;50.754;3.366;2023-05-14T01:50:18;14.70;99.90
20481;DHT22;10399;50.754;3.366;2023-05-14T01:52:45;14.80;99.90
20481;DHT22;10399;50.754;3.366;2023-05-14T01:55:14;14.70;99.90
20481;DHT22;10399;50.754;3.366;2023-05-14T01:57:41;14.70;99.90
20481;DHT22;10399;50.754;3.366;2023-05-14T02:00:08;14.60;99.90
20481;DHT22;10399;50.754;3.366;2023-05-14T02:02:37;14.60;99.90
20481;DHT22;10399;50.754;3.366;2023-05-14T02:05:05;14.50;99.90
20481;DHT22;10399;50.754;3.366;2023-05-14T02:07:33;14.60;99.90
20481;DHT22;10399;50.754;3.366;2023-05-14T02:10:00;14.60;99.90
20481;DHT22;10399;50.754;3.366;2023-05-14T02:12:26;14.60;99.90
20481;DHT22;10399;50.754;3.366;2023-05-14T02:14:53;14.70;99.90
20481;DHT22;10399;50.754;3.366;2023-05-14T02:17:20;14.60;99.90
20481;DHT22;10399;50.754;3.366;2023-05-14T02:19:47;14.40;99.90
20481;DHT22;10399;50.754;3.366;2023-05-14T02:22:14;14.50;99.90
20481;DHT22;10399;50.754;3.366;2023-05-14T02:24:41;14.50;99.90
20481;DHT22;10399;50.754;3.366;2023-05-14T02:27:08;14.50;99.90
20481;DHT22;10399;50.754;3.366;2023-05-14T02:29:35;14.50;99.90
20481;DHT22;10399;50.754;3.366;2023-05-14T02:32:02;14.50;99.90
20481;DHT22;10399;50.754;3.366;2023-05-14T02:34:29;14.50;99.90
20481;DHT22;10399;50.754;3.366;2023-05-14T02:36:56;14.40;99.90
20481;DHT22;10399;50.754;3.366;2023-05-14T02:39:23;14.60;99.90
20481;DHT22;10399;50.754;3.366;2023-05-14T02:41:50;14.50;99.90
20481;DHT22;10399;50.754;3.366;2023-05-14T02:44:17;14.60;99.90
20481;DHT22;10399;50.754;3.366;2023-05-14T02:46:44;14.50;99.90
20481;DHT22;10399;50.754;3.366;2023-05-14T02:49:11;14.40;99.90
20481;DHT22;10399;50.754;3.366;2023-05-14T02:51:38;14.50;99.90
20481;DHT22;10399;50.754;3.366;2023-05-14T02:54:06;14.50;99.90
20481;DHT22;10399;50.754;3.366;2023-05-14T02:56:33;14.40;99.90
20481;DHT22;10399;50.754;3.366;2023-05-14T02:59:00;14.50;99.90
20481;DHT22;10399;50.754;3.366;2023-05-14T03:01:27;14.60;99.90
20481;DHT22;10399;50.754;3.366;2023-05-14T03:03:54;14.70;99.90
20481;DHT22;10399;50.754;3.366;2023-05-14T03:06:22;14.60;99.90
20481;DHT22;10399;50.754;3.366;2023-05-14T03:08:49;14.70;99.90
20481;DHT22;10399;50.754;3.366;2023-05-14T03:11:16;14.60;99.90
20481;DHT22;10399;50.754;3.366;2023-05-14T03:13:43;14.50;99.90
20481;DHT22;10399;50.754;3.366;2023-05-14T03:16:10;14.40;99.90
20481;DHT22;10399;50.754;3.366;2023-05-14T03:18:37;14.40;99.90
20481;DHT22;10399;50.754;3.366;2023-05-14T03:21:05;14.40;99.90
20481;DHT22;10399;50.754;3.366;2023-05-14T03:23:32;14.40;99.90
20481;DHT22;10399;50.754;3.366;2023-05-14T03:26:00;14.40;99.90
20481;DHT22;10399;50.754;3.366;2023-05-14T03:28:28;14.10;99.90
20481;DHT22;10399;50.754;3.366;2023-05-14T03:30:55;14.10;99.90
20481;DHT22;10399;50.754;3.366;2023-05-14T03:33:22;14.10;99.90
20481;DHT22;10399;50.754;3.366;2023-05-14T03:35:50;14.20;99.90
20481;DHT22;10399;50.754;3.366;2023-05-14T03:38:19;14.20;99.90
20481;DHT22;10399;50.754;3.366;2023-05-14T03:40:46;14.40;99.90
20481;DHT22;10399;50.754;3.366;2023-05-14T03:43:13;14.40;99.90
20481;DHT22;10399;50.754;3.366;2023-05-14T03:45:39;14.50;99.90
20481;DHT22;10399;50.754;3.366;2023-05-14T03:48:06;14.40;99.90
20481;DHT22;10399;50.754;3.366;2023-05-14T03:50:34;14.50;99.90
20481;DHT22;10399;50.754;3.366;2023-05-14T03:53:01;14.30;99.90
20481;DHT22;10399;50.754;3.366;2023-05-14T03:55:28;14.40;99.90
20481;DHT22;10399;50.754;3.366;2023-05-14T03:57:55;14.40;99.90
20481;DHT22;10399;50.754;3.366;2023-05-14T04:00:22;14.20;99.90
20481;DHT22;10399;50.754;3.366;2023-05-14T04:02:50;14.50;99.90
20481;DHT22;10399;50.754;3.366;2023-05-14T04:05:17;14.60;99.90
20481;DHT22;10399;50.754;3.366;2023-05-14T04:07:44;14.70;99.90
20481;DHT22;10399;50.754;3.366;2023-05-14T04:10:12;14.80;99.90
20481;DHT22;10399;50.754;3.366;2023-05-14T04:12:39;14.80;99.90
20481;DHT22;10399;50.754;3.366;2023-05-14T04:15:08;14.50;99.90
20481;DHT22;10399;50.754;3.366;2023-05-14T04:17:34;14.40;99.90
20481;DHT22;10399;50.754;3.366;2023-05-14T04:20:01;14.40;99.90
20481;DHT22;10399;50.754;3.366;2023-05-14T04:22:29;14.30;99.90
20481;DHT22;10399;50.754;3.366;2023-05-14T04:24:55;14.20;99.90
20481;DHT22;10399;50.754;3.366;2023-05-14T04:27:23;14.30;99.90
20481;DHT22;10399;50.754;3.366;2023-05-14T04:29:50;14.20;99.90
20481;DHT22;10399;50.754;3.366;2023-05-14T04:32:17;14.10;99.90
20481;DHT22;10399;50.754;3.366;2023-05-14T04:34:44;14.20;99.90
20481;DHT22;10399;50.754;3.366;2023-05-14T04:37:13;14.40;99.90
20481;DHT22;10399;50.754;3.366;2023-05-14T04:39:40;14.60;99.90
20481;DHT22;10399;50.754;3.366;2023-05-14T04:42:07;14.60;99.90
20481;DHT22;10399;50.754;3.366;2023-05-14T04:44:34;14.30;99.90
20481;DHT22;10399;50.754;3.366;2023-05-14T04:47:02;14.50;99.90
20481;DHT22;10399;50.754;3.366;2023-05-14T04:49:30;14.30;99.90
20481;DHT22;10399;50.754;3.366;2023-05-14T04:51:56;14.20;99.90
20481;DHT22;10399;50.754;3.366;2023-05-14T04:54:24;14.10;99.90
20481;DHT22;10399;50.754;3.366;2023-05-14T04:56:51;14.10;99.90
20481;DHT22;10399;50.754;3.366;2023-05-14T04:59:19;14.30;99.90
20481;DHT22;10399;50.754;3.366;2023-05-14T05:01:46;14.40;99.90
20481;DHT22;10399;50.754;3.366;2023-05-14T05:04:13;14.40;99.90
20481;DHT22;10399;50.754;3.366;2023-05-14T05:06:41;14.30;99.90
20481;DHT22;10399;50.754;3.366;2023-05-14T05:09:08;14.20;99.90
20481;DHT22;10399;50.754;3.366;2023-05-14T05:11:35;14.20;99.90
20481;DHT22;10399;50.754;3.366;2023-05-14T05:14:03;14.10;99.90
20481;DHT22;10399;50.754;3.366;2023-05-14T05:16:30;14.00;99.90
20481;DHT22;10399;50.754;3.366;2023-05-14T05:18:57;14.10;99.90
20481;DHT22;10399;50.754;3.366;2023-05-14T05:21:24;14.10;99.90
20481;DHT22;10399;50.754;3.366;2023-05-14T05:23:51;13.80;99.90
20481;DHT22;10399;50.754;3.366;2023-05-14T05:26:18;13.90;99.90
20481;DHT22;10399;50.754;3.366;2023-05-14T05:28:47;13.90;99.90
20481;DHT22;10399;50.754;3.366;2023-05-14T05:31:14;13.80;99.90
20481;DHT22;10399;50.754;3.366;2023-05-14T05:33:45;14.00;99.90
20481;DHT22;10399;50.754;3.366;2023-05-14T05:36:12;14.00;99.90
20481;DHT22;10399;50.754;3.366;2023-05-14T05:38:39;14.00;99.90
20481;DHT22;10399;50.754;3.366;2023-05-14T05:41:06;13.90;99.90
20481;DHT22;10399;50.754;3.366;2023-05-14T05:43:34;14.00;99.90
20481;DHT22;10399;50.754;3.366;2023-05-14T05:46:01;14.00;99.90
20481;DHT22;10399;50.754;3.366;2023-05-14T05:48:28;14.10;99.90
20481;DHT22;10399;50.754;3.366;2023-05-14T05:50:55;14.10;99.90
20481;DHT22;10399;50.754;3.366;2023-05-14T05:53:22;14.20;99.90
20481;DHT22;10399;50.754;3.366;2023-05-14T05:55:49;14.10;99.90
20481;DHT22;10399;50.754;3.366;2023-05-14T05:58:18;13.90;99.90
20481;DHT22;10399;50.754;3.366;2023-05-14T06:00:45;13.90;99.90
20481;DHT22;10399;50.754;3.366;2023-05-14T06:03:13;14.00;99.90
20481;DHT22;10399;50.754;3.366;2023-05-14T06:05:41;14.00;99.90
20481;DHT22;10399;50.754;3.366;2023-05-14T06:08:08;14.00;99.90
20481;DHT22;10399;50.754;3.366;2023-05-14T06:10:37;14.00;99.90
20481;DHT22;10399;50.754;3.366;2023-05-14T06:13:04;14.00;99.90
20481;DHT22;10399;50.754;3.366;2023-05-14T06:15:32;14.10;99.90
20481;DHT22;10399;50.754;3.366;2023-05-14T06:17:59;14.10;99.90
20481;DHT22;10399;50.754;3.366;2023-05-14T06:20:27;14.10;99.90
20481;DHT22;10399;50.754;3.366;2023-05-14T06:22:54;14.10;99.90
20481;DHT22;10399;50.754;3.366;2023-05-14T06:25:21;14.10;99.90
20481;DHT22;10399;50.754;3.366;2023-05-14T06:27:48;14.10;99.90
20481;DHT22;10399;50.754;3.366;2023-05-14T06:30:16;14.10;99.90
20481;DHT22;10399;50.754;3.366;2023-05-14T06:32:42;14.20;99.90
20481;DHT22;10399;50.754;3.366;2023-05-14T06:35:10;14.10;99.90
20481;DHT22;10399;50.754;3.366;2023-05-14T06:37:37;14.10;99.90
20481;DHT22;10399;50.754;3.366;2023-05-14T06:40:05;14.10;99.90
20481;DHT22;10399;50.754;3.366;2023-05-14T06:42:32;14.20;99.90
20481;DHT22;10399;50.754;3.366;2023-05-14T06:44:59;14.30;99.90
20481;DHT22;10399;50.754;3.366;2023-05-14T06:47:26;14.30;99.90
20481;DHT22;10399;50.754;3.366;2023-05-14T06:49:54;14.40;99.90
20481;DHT22;10399;50.754;3.366;2023-05-14T06:52:22;14.40;99.90
20481;DHT22;10399;50.754;3.366;2023-05-14T06:54:49;14.50;99.90
20481;DHT22;10399;50.754;3.366;2023-05-14T06:57:16;14.50;99.90
20481;DHT22;10399;50.754;3.366;2023-05-14T06:59:43;14.50;99.90
20481;DHT22;10399;50.754;3.366;2023-05-14T07:02:10;14.60;99.90
20481;DHT22;10399;50.754;3.366;2023-05-14T07:04:37;14.70;99.90
20481;DHT22;10399;50.754;3.366;2023-05-14T07:07:05;14.70;99.90
20481;DHT22;10399;50.754;3.366;2023-05-14T07:09:32;14.50;99.90
20481;DHT22;10399;50.754;3.366;2023-05-14T07:12:03;14.50;99.90
20481;DHT22;10399;50.754;3.366;2023-05-14T07:14:30;14.60;99.90
20481;DHT22;10399;50.754;3.366;2023-05-14T07:16:57;14.60;99.90
20481;DHT22;10399;50.754;3.366;2023-05-14T07:19:24;14.80;99.90
20481;DHT22;10399;50.754;3.366;2023-05-14T07:21:55;14.80;99.90
20481;DHT22;10399;50.754;3.366;2023-05-14T07:24:23;14.80;99.90
20481;DHT22;10399;50.754;3.366;2023-05-14T07:26:50;14.70;99.90
20481;DHT22;10399;50.754;3.366;2023-05-14T07:29:17;14.70;99.90
20481;DHT22;10399;50.754;3.366;2023-05-14T07:31:43;14.70;99.90
20481;DHT22;10399;50.754;3.366;2023-05-14T07:34:11;14.90;99.90
20481;DHT22;10399;50.754;3.366;2023-05-14T07:36:38;15.00;99.90
20481;DHT22;10399;50.754;3.366;2023-05-14T07:39:08;15.00;99.90
20481;DHT22;10399;50.754;3.366;2023-05-14T07:41:36;14.90;99.90
20481;DHT22;10399;50.754;3.366;2023-05-14T07:44:03;14.90;99.90
20481;DHT22;10399;50.754;3.366;2023-05-14T07:46:30;15.00;99.90
20481;DHT22;10399;50.754;3.366;2023-05-14T07:48:57;15.20;99.90
20481;DHT22;10399;50.754;3.366;2023-05-14T07:51:24;15.10;99.90
20481;DHT22;10399;50.754;3.366;2023-05-14T07:53:54;15.20;99.90
20481;DHT22;10399;50.754;3.366;2023-05-14T07:56:22;15.20;99.90
20481;DHT22;10399;50.754;3.366;2023-05-14T07:58:49;15.30;99.90
20481;DHT22;10399;50.754;3.366;2023-05-14T08:01:17;15.20;99.90
20481;DHT22;10399;50.754;3.366;2023-05-14T08:03:44;15.30;99.90
20481;DHT22;10399;50.754;3.366;2023-05-14T08:06:15;15.40;99.90
20481;DHT22;10399;50.754;3.366;2023-05-14T08:08:42;15.20;99.90
20481;DHT22;10399;50.754;3.366;2023-05-14T08:11:09;15.30;99.90
20481;DHT22;10399;50.754;3.366;2023-05-14T08:13:36;15.30;99.90
20481;DHT22;10399;50.754;3.366;2023-05-14T08:16:04;15.30;99.90
20481;DHT22;10399;50.754;3.366;2023-05-14T08:18:32;15.30;99.90
20481;DHT22;10399;50.754;3.366;2023-05-14T08:20:59;15.40;99.90
20481;DHT22;10399;50.754;3.366;2023-05-14T08:23:28;15.40;99.90
20481;DHT22;10399;50.754;3.366;2023-05-14T08:25:55;15.50;99.90
20481;DHT22;10399;50.754;3.366;2023-05-14T08:28:22;15.60;99.90
20481;DHT22;10399;50.754;3.366;2023-05-14T08:30:49;15.80;99.90
20481;DHT22;10399;50.754;3.366;2023-05-14T08:33:17;16.00;99.90
20481;DHT22;10399;50.754;3.366;2023-05-14T08:35:44;16.10;99.90
20481;DHT22;10399;50.754;3.366;2023-05-14T08:38:11;16.00;99.90
20481;DHT22;10399;50.754;3.366;2023-05-14T08:40:38;16.20;99.90
20481;DHT22;10399;50.754;3.366;2023-05-14T08:43:05;16.30;99.90
20481;DHT22;10399;50.754;3.366;2023-05-14T08:45:34;16.50;99.90
20481;DHT22;10399;50.754;3.366;2023-05-14T08:48:02;16.50;99.90
20481;DHT22;10399;50.754;3.366;2023-05-14T08:50:34;16.60;99.90
20481;DHT22;10399;50.754;3.366;2023-05-14T08:53:01;16.70;99.90
20481;DHT22;10399;50.754;3.366;2023-05-14T08:55:30;16.60;99.90
20481;DHT22;10399;50.754;3.366;2023-05-14T08:57:59;16.80;99.90
20481;DHT22;10399;50.754;3.366;2023-05-14T09:00:27;17.10;99.90
20481;DHT22;10399;50.754;3.366;2023-05-14T09:02:54;17.20;99.90
20481;DHT22;10399;50.754;3.366;2023-05-14T09:05:22;17.20;99.90
20481;DHT22;10399;50.754;3.366;2023-05-14T09:07:49;17.00;99.90
20481;DHT22;10399;50.754;3.366;2023-05-14T09:10:18;17.10;99.90
20481;DHT22;10399;50.754;3.366;2023-05-14T09:12:45;17.30;99.90
20481;DHT22;10399;50.754;3.366;2023-05-14T09:15:12;17.40;99.90
20481;DHT22;10399;50.754;3.366;2023-05-14T09:17:39;17.50;99.90
20481;DHT22;10399;50.754;3.366;2023-05-14T09:20:07;17.70;99.90
20481;DHT22;10399;50.754;3.366;2023-05-14T09:22:35;17.90;99.90
20481;DHT22;10399;50.754;3.366;2023-05-14T09:25:09;18.00;99.90
20481;DHT22;10399;50.754;3.366;2023-05-14T09:27:38;18.20;99.90
20481;DHT22;10399;50.754;3.366;2023-05-14T09:30:10;18.30;99.90
20481;DHT22;10399;50.754;3.366;2023-05-14T09:32:42;18.50;99.90
20481;DHT22;10399;50.754;3.366;2023-05-14T09:35:18;19.00;99.90
20481;DHT22;10399;50.754;3.366;2023-05-14T09:37:47;19.30;99.90
20481;DHT22;10399;50.754;3.366;2023-05-14T09:40:15;19.80;99.90
20481;DHT22;10399;50.754;3.366;2023-05-14T09:42:42;20.10;99.90
20481;DHT22;10399;50.754;3.366;2023-05-14T09:45:10;20.40;99.90
20481;DHT22;10399;50.754;3.366;2023-05-14T09:47:38;20.70;99.90
20481;DHT22;10399;50.754;3.366;2023-05-14T09:50:06;20.50;99.90
20481;DHT22;10399;50.754;3.366;2023-05-14T09:52:34;20.80;99.90
20481;DHT22;10399;50.754;3.366;2023-05-14T09:55:01;21.20;99.90
20481;DHT22;10399;50.754;3.366;2023-05-14T09:57:28;21.10;99.90
20481;DHT22;10399;50.754;3.366;2023-05-14T09:59:55;21.20;99.90
20481;DHT22;10399;50.754;3.366;2023-05-14T10:02:30;21.50;99.90
20481;DHT22;10399;50.754;3.366;2023-05-14T10:05:04;21.60;99.90
20481;DHT22;10399;50.754;3.366;2023-05-14T10:07:41;21.80;99.90
20481;DHT22;10399;50.754;3.366;2023-05-14T10:10:14;22.10;99.90
20481;DHT22;10399;50.754;3.366;2023-05-14T10:12:45;22.40;99.90
20481;DHT22;10399;50.754;3.366;2023-05-14T10:15:20;22.60;99.90
20481;DHT22;10399;50.754;3.366;2023-05-14T10:17:57;22.90;99.90
20481;DHT22;10399;50.754;3.366;2023-05-14T10:20:26;22.90;99.90
20481;DHT22;10399;50.754;3.366;2023-05-14T10:22:57;23.20;99.90
20481;DHT22;10399;50.754;3.366;2023-05-14T10:25:24;23.40;99.90
20481;DHT22;10399;50.754;3.366;2023-05-14T10:27:52;23.50;99.90
20481;DHT22;10399;50.754;3.366;2023-05-14T10:30:20;23.50;99.90
20481;DHT22;10399;50.754;3.366;2023-05-14T10:33:11;23.50;99.90
20481;DHT22;10399;50.754;3.366;2023-05-14T10:36:02;23.90;99.90
20481;DHT22;10399;50.754;3.366;2023-05-14T10:38:33;24.00;99.90
20481;DHT22;10399;50.754;3.366;2023-05-14T10:41:06;24.30;99.90
20481;DHT22;10399;50.754;3.366;2023-05-14T10:43:38;24.50;99.90
20481;DHT22;10399;50.754;3.366;2023-05-14T10:46:06;24.90;99.90
20481;DHT22;10399;50.754;3.366;2023-05-14T10:48:34;25.10;99.90
20481;DHT22;10399;50.754;3.366;2023-05-14T10:51:02;25.20;99.90
20481;DHT22;10399;50.754;3.366;2023-05-14T10:53:33;25.40;99.90
20481;DHT22;10399;50.754;3.366;2023-05-14T10:56:05;24.80;99.90
20481;DHT22;10399;50.754;3.366;2023-05-14T10:58:43;25.00;99.90
20481;DHT22;10399;50.754;3.366;2023-05-14T11:01:12;25.40;99.90
20481;DHT22;10399;50.754;3.366;2023-05-14T11:03:41;25.20;99.90
20481;DHT22;10399;50.754;3.366;2023-05-14T11:06:10;25.50;99.90
20481;DHT22;10399;50.754;3.366;2023-05-14T11:08:38;25.50;99.90
20481;DHT22;10399;50.754;3.366;2023-05-14T11:11:07;25.80;99.90
20481;DHT22;10399;50.754;3.366;2023-05-14T11:13:34;25.80;99.90
20481;DHT22;10399;50.754;3.366;2023-05-14T11:16:02;26.20;99.90
20481;DHT22;10399;50.754;3.366;2023-05-14T11:18:52;26.50;99.90
20481;DHT22;10399;50.754;3.366;2023-05-14T11:21:26;26.30;99.90
20481;DHT22;10399;50.754;3.366;2023-05-14T11:23:54;26.20;99.90
20481;DHT22;10399;50.754;3.366;2023-05-14T11:26:22;25.80;99.90
20481;DHT22;10399;50.754;3.366;2023-05-14T11:28:49;25.60;99.90
20481;DHT22;10399;50.754;3.366;2023-05-14T11:31:16;25.70;99.90
20481;DHT22;10399;50.754;3.366;2023-05-14T11:33:43;26.00;99.90
20481;DHT22;10399;50.754;3.366;2023-05-14T11:36:10;26.10;99.90
20481;DHT22;10399;50.754;3.366;2023-05-14T11:38:48;26.40;99.90
20481;DHT22;10399;50.754;3.366;2023-05-14T11:41:17;26.70;99.90
20481;DHT22;10399;50.754;3.366;2023-05-14T11:43:47;26.60;99.90
20481;DHT22;10399;50.754;3.366;2023-05-14T11:46:17;27.00;99.90
20481;DHT22;10399;50.754;3.366;2023-05-14T11:48:44;27.00;99.90
20481;DHT22;10399;50.754;3.366;2023-05-14T11:51:11;27.00;99.90
20481;DHT22;10399;50.754;3.366;2023-05-14T11:53:38;27.20;99.90
20481;DHT22;10399;50.754;3.366;2023-05-14T11:56:05;27.30;99.90
20481;DHT22;10399;50.754;3.366;2023-05-14T11:58:35;27.50;99.90
20481;DHT22;10399;50.754;3.366;2023-05-14T12:01:02;27.10;99.90
20481;DHT22;10399;50.754;3.366;2023-05-14T12:03:29;27.30;99.90
20481;DHT22;10399;50.754;3.366;2023-05-14T12:06:00;27.10;99.90
20481;DHT22;10399;50.754;3.366;2023-05-14T12:08:29;27.00;99.90
20481;DHT22;10399;50.754;3.366;2023-05-14T12:10:58;27.20;99.90
20481;DHT22;10399;50.754;3.366;2023-05-14T12:13:30;27.50;99.90
20481;DHT22;10399;50.754;3.366;2023-05-14T12:15:59;27.30;99.90
20481;DHT22;10399;50.754;3.366;2023-05-14T12:18:29;27.60;99.90
20481;DHT22;10399;50.754;3.366;2023-05-14T12:21:04;27.70;99.90
20481;DHT22;10399;50.754;3.366;2023-05-14T12:23:34;27.90;99.90
20481;DHT22;10399;50.754;3.366;2023-05-14T12:26:02;28.00;99.90
20481;DHT22;10399;50.754;3.366;2023-05-14T12:28:32;28.00;99.90
20481;DHT22;10399;50.754;3.366;2023-05-14T12:31:03;28.50;99.90
20481;DHT22;10399;50.754;3.366;2023-05-14T12:33:30;28.40;99.90
20481;DHT22;10399;50.754;3.366;2023-05-14T12:35:57;28.30;99.90
20481;DHT22;10399;50.754;3.366;2023-05-14T12:38:45;28.20;99.90
20481;DHT22;10399;50.754;3.366;2023-05-14T12:41:12;28.40;99.90
20481;DHT22;10399;50.754;3.366;2023-05-14T12:43:43;28.40;99.90
20481;DHT22;10399;50.754;3.366;2023-05-14T12:46:10;28.80;99.90
20481;DHT22;10399;50.754;3.366;2023-05-14T12:48:37;28.10;99.90
20481;DHT22;10399;50.754;3.366;2023-05-14T12:51:05;28.50;99.90
20481;DHT22;10399;50.754;3.366;2023-05-14T12:53:33;29.00;99.90
20481;DHT22;10399;50.754;3.366;2023-05-14T12:56:01;29.10;99.90
20481;DHT22;10399;50.754;3.366;2023-05-14T12:58:28;28.90;99.90
20481;DHT22;10399;50.754;3.366;2023-05-14T13:00:55;28.70;99.90
20481;DHT22;10399;50.754;3.366;2023-05-14T13:03:22;29.10;99.90
20481;DHT22;10399;50.754;3.366;2023-05-14T13:05:51;29.00;99.90
20481;DHT22;10399;50.754;3.366;2023-05-14T13:08:20;28.60;99.90
20481;DHT22;10399;50.754;3.366;2023-05-14T13:10:51;29.10;99.90
20481;DHT22;10399;50.754;3.366;2023-05-14T13:13:19;28.90;99.90
20481;DHT22;10399;50.754;3.366;2023-05-14T13:15:46;28.80;99.90
20481;DHT22;10399;50.754;3.366;2023-05-14T13:18:14;29.40;99.90
20481;DHT22;10399;50.754;3.366;2023-05-14T13:20:41;28.80;99.90
20481;DHT22;10399;50.754;3.366;2023-05-14T13:23:09;28.80;99.90
20481;DHT22;10399;50.754;3.366;2023-05-14T13:25:36;29.30;99.90
20481;DHT22;10399;50.754;3.366;2023-05-14T13:28:04;29.40;99.90
20481;DHT22;10399;50.754;3.366;2023-05-14T13:30:31;29.70;99.90
20481;DHT22;10399;50.754;3.366;2023-05-14T13:32:58;29.80;99.90
20481;DHT22;10399;50.754;3.366;2023-05-14T13:35:26;29.80;99.90
20481;DHT22;10399;50.754;3.366;2023-05-14T13:37:53;29.30;99.90
20481;DHT22;10399;50.754;3.366;2023-05-14T13:40:20;29.40;99.90
20481;DHT22;10399;50.754;3.366;2023-05-14T13:42:48;29.60;99.90
20481;DHT22;10399;50.754;3.366;2023-05-14T13:45:15;29.70;99.90
20481;DHT22;10399;50.754;3.366;2023-05-14T13:47:42;29.30;99.80
20481;DHT22;10399;50.754;3.366;2023-05-14T13:50:10;29.20;99.90
20481;DHT22;10399;50.754;3.366;2023-05-14T13:52:37;29.30;99.90
20481;DHT22;10399;50.754;3.366;2023-05-14T13:55:05;28.80;99.90
20481;DHT22;10399;50.754;3.366;2023-05-14T13:57:32;28.80;99.20
20481;DHT22;10399;50.754;3.366;2023-05-14T13:59:59;28.50;99.90
20481;DHT22;10399;50.754;3.366;2023-05-14T14:02:26;28.30;99.90
20481;DHT22;10399;50.754;3.366;2023-05-14T14:04:53;28.20;99.90
20481;DHT22;10399;50.754;3.366;2023-05-14T14:07:22;28.10;99.90
20481;DHT22;10399;50.754;3.366;2023-05-14T14:09:49;28.50;99.90
20481;DHT22;10399;50.754;3.366;2023-05-14T14:12:16;28.10;99.90
20481;DHT22;10399;50.754;3.366;2023-05-14T14:14:43;28.10;99.90
20481;DHT22;10399;50.754;3.366;2023-05-14T14:17:10;27.70;99.90
20481;DHT22;10399;50.754;3.366;2023-05-14T14:19:37;27.60;99.90
20481;DHT22;10399;50.754;3.366;2023-05-14T14:22:04;27.50;99.90
20481;DHT22;10399;50.754;3.366;2023-05-14T14:24:31;27.70;99.90
20481;DHT22;10399;50.754;3.366;2023-05-14T14:26:59;27.70;99.90
20481;DHT22;10399;50.754;3.366;2023-05-14T14:29:27;27.70;99.90
20481;DHT22;10399;50.754;3.366;2023-05-14T14:31:56;27.50;99.90
20481;DHT22;10399;50.754;3.366;2023-05-14T14:34:24;27.40;99.90
20481;DHT22;10399;50.754;3.366;2023-05-14T14:36:51;26.90;99.90
20481;DHT22;10399;50.754;3.366;2023-05-14T14:39:18;26.80;99.90
20481;DHT22;10399;50.754;3.366;2023-05-14T14:41:45;26.80;99.90
20481;DHT22;10399;50.754;3.366;2023-05-14T14:44:13;26.70;99.90
20481;DHT22;10399;50.754;3.366;2023-05-14T14:46:40;26.80;99.90
20481;DHT22;10399;50.754;3.366;2023-05-14T14:49:08;26.60;99.90
20481;DHT22;10399;50.754;3.366;2023-05-14T14:51:35;26.30;99.90
20481;DHT22;10399;50.754;3.366;2023-05-14T14:54:02;26.10;99.90
20481;DHT22;10399;50.754;3.366;2023-05-14T14:56:31;26.00;99.90
20481;DHT22;10399;50.754;3.366;2023-05-14T14:58:58;26.00;99.90
20481;DHT22;10399;50.754;3.366;2023-05-14T15:01:25;25.80;99.90
20481;DHT22;10399;50.754;3.366;2023-05-14T15:03:52;25.60;99.90
20481;DHT22;10399;50.754;3.366;2023-05-14T15:06:20;26.10;99.90
20481;DHT22;10399;50.754;3.366;2023-05-14T15:08:47;26.20;99.90
20481;DHT22;10399;50.754;3.366;2023-05-14T15:11:14;26.20;99.90
20481;DHT22;10399;50.754;3.366;2023-05-14T15:13:41;26.20;99.90
20481;DHT22;10399;50.754;3.366;2023-05-14T15:16:08;26.40;99.90
20481;DHT22;10399;50.754;3.366;2023-05-14T15:18:35;25.90;99.90
20481;DHT22;10399;50.754;3.366;2023-05-14T15:21:03;25.80;99.90
20481;DHT22;10399;50.754;3.366;2023-05-14T15:23:30;25.50;99.90
20481;DHT22;10399;50.754;3.366;2023-05-14T15:25:57;26.00;99.90
20481;DHT22;10399;50.754;3.366;2023-05-14T15:28:24;26.00;99.90
20481;DHT22;10399;50.754;3.366;2023-05-14T15:30:51;26.20;99.90
20481;DHT22;10399;50.754;3.366;2023-05-14T15:33:18;25.90;99.90
20481;DHT22;10399;50.754;3.366;2023-05-14T15:35:45;25.90;99.90
20481;DHT22;10399;50.754;3.366;2023-05-14T15:38:12;26.00;99.90
20481;DHT22;10399;50.754;3.366;2023-05-14T15:40:40;25.90;99.90